createdAt,value
2018-02-16T00:00:07.498Z,0
2018-02-16T00:01:07.209Z,0
2018-02-16T00:02:07.962Z,0
2018-02-16T00:03:07.690Z,0
2018-02-16T00:04:07.678Z,0
2018-02-16T00:05:07.408Z,0
2018-02-16T00:06:07.648Z,0
2018-02-16T00:07:07.638Z,0
2018-02-16T00:08:07.375Z,0
2018-02-16T00:09:07.356Z,0
2018-02-16T00:10:07.601Z,0
2018-02-16T00:11:07.834Z,0
2018-02-16T00:12:07.315Z,0
2018-02-16T00:13:07.823Z,0
2018-02-16T00:14:07.289Z,0
2018-02-16T00:15:07.781Z,0
2018-02-16T00:16:07.515Z,0
2018-02-16T00:17:07.762Z,0
2018-02-16T00:18:07.241Z,0
2018-02-16T00:19:07.478Z,0
2018-02-16T00:20:07.211Z,0
2018-02-16T00:21:07.706Z,0
2018-02-16T00:22:07.182Z,0
2018-02-16T00:23:07.690Z,0
2018-02-16T00:24:07.160Z,0
2018-02-16T00:25:07.399Z,0
2018-02-16T00:26:07.131Z,0
2018-02-16T00:27:07.114Z,0
2018-02-16T00:28:07.102Z,0
2018-02-16T00:29:07.340Z,0
2018-02-16T00:30:07.332Z,0
2018-02-16T00:31:07.584Z,0
2018-02-16T00:32:07.305Z,0
2018-02-16T00:33:07.302Z,0
2018-02-16T00:34:07.286Z,0
2018-02-16T00:35:07.010Z,0
2018-02-16T00:36:07.257Z,0
2018-02-16T00:37:07.237Z,0
2018-02-16T00:38:07.230Z,0
2018-02-16T00:39:07.212Z,0
2018-02-16T00:40:07.197Z,0
2018-02-16T00:41:07.184Z,0
2018-02-16T00:42:06.660Z,0
2018-02-16T00:43:07.209Z,0
2018-02-16T00:44:07.147Z,0
2018-02-16T00:45:07.128Z,0
2018-02-16T00:46:07.374Z,0
2018-02-16T00:47:07.359Z,0
2018-02-16T00:48:06.834Z,0
2018-02-16T00:49:06.824Z,0
2018-02-16T00:50:21.731Z,0
2018-02-16T00:51:07.306Z,0
2018-02-16T00:52:07.313Z,0
2018-02-16T00:53:07.276Z,0
2018-02-16T00:54:06.757Z,0
2018-02-16T00:55:07.256Z,0
2018-02-16T00:56:06.985Z,0
2018-02-16T00:57:06.968Z,0
2018-02-16T00:58:06.958Z,0
2018-02-16T00:59:07.200Z,0
2018-02-16T01:00:06.933Z,0
2018-02-16T01:01:21.841Z,0
2018-02-16T01:02:07.204Z,0
2018-02-16T01:03:06.894Z,0
2018-02-16T01:04:06.881Z,0
2018-02-16T01:05:07.176Z,0
2018-02-16T01:06:07.111Z,0
2018-02-16T01:07:07.112Z,0
2018-02-16T01:08:06.573Z,0
2018-02-16T01:09:06.563Z,0
2018-02-16T01:10:06.813Z,0
2018-02-16T01:11:06.541Z,0
2018-02-16T01:12:06.779Z,0
2018-02-16T01:13:06.759Z,0
2018-02-16T01:14:07.007Z,0
2018-02-16T01:15:06.984Z,0
2018-02-16T01:16:06.976Z,0
2018-02-16T01:17:06.712Z,0
2018-02-16T01:18:06.439Z,0
2018-02-16T01:19:06.683Z,0
2018-02-16T01:20:06.667Z,0
2018-02-16T01:21:06.398Z,0
2018-02-16T01:22:06.639Z,0
2018-02-16T01:23:06.636Z,0
2018-02-16T01:24:06.874Z,0
2018-02-16T01:25:06.860Z,0
2018-02-16T01:26:06.843Z,0
2018-02-16T01:27:06.341Z,0
2018-02-16T01:28:06.811Z,0
2018-02-16T01:29:06.661Z,0
2018-02-16T01:30:06.791Z,0
2018-02-16T01:31:06.519Z,0
2018-02-16T01:32:06.503Z,0
2018-02-16T01:33:06.756Z,0
2018-02-16T01:34:06.486Z,0
2018-02-16T01:35:06.722Z,0
2018-02-16T01:36:06.452Z,0
2018-02-16T01:37:06.184Z,0
2018-02-16T01:38:06.172Z,0
2018-02-16T01:39:06.410Z,0
2018-02-16T01:40:06.398Z,0
2018-02-16T01:41:06.651Z,0
2018-02-16T01:42:06.627Z,0
2018-02-16T01:43:06.363Z,0
2018-02-16T01:44:06.348Z,0
2018-02-16T01:45:06.596Z,0
2018-02-16T01:46:06.576Z,0
2018-02-16T01:47:06.313Z,0
2018-02-16T01:48:06.048Z,0
2018-02-16T01:49:06.292Z,0
2018-02-16T01:50:06.007Z,0
2018-02-16T01:51:06.504Z,0
2018-02-16T01:52:06.555Z,0
2018-02-16T01:53:06.497Z,0
2018-02-16T01:54:05.960Z,0
2018-02-16T01:55:05.952Z,0
2018-02-16T01:56:06.189Z,0
2018-02-16T01:57:05.924Z,0
2018-02-16T01:58:06.162Z,0
2018-02-16T01:59:06.150Z,0
2018-02-16T02:00:06.134Z,0
2018-02-16T02:01:06.135Z,0
2018-02-16T02:02:06.367Z,0
2018-02-16T02:03:05.842Z,0
2018-02-16T02:04:06.341Z,0
2018-02-16T02:05:06.073Z,0
2018-02-16T02:06:06.055Z,0
2018-02-16T02:07:06.303Z,0
2018-02-16T02:08:06.027Z,0
2018-02-16T02:09:06.028Z,0
2018-02-16T02:10:06.259Z,0
2018-02-16T02:11:06.244Z,0
2018-02-16T02:12:06.223Z,0
2018-02-16T02:13:06.217Z,0
2018-02-16T02:14:06.204Z,0
2018-02-16T02:15:06.191Z,0
2018-02-16T02:16:06.174Z,0
2018-02-16T02:17:05.914Z,0
2018-02-16T02:18:06.151Z,0
2018-02-16T02:19:06.141Z,0
2018-02-16T02:20:06.133Z,0
2018-02-16T02:21:06.109Z,0
2018-02-16T02:22:05.591Z,0
2018-02-16T02:23:06.084Z,0
2018-02-16T02:24:06.070Z,0
2018-02-16T02:25:06.056Z,0
2018-02-16T02:26:06.048Z,0
2018-02-16T02:27:05.780Z,0
2018-02-16T02:28:05.510Z,0
2018-02-16T02:29:06.000Z,0
2018-02-16T02:30:05.736Z,0
2018-02-16T02:31:05.735Z,0
2018-02-16T02:32:05.719Z,0
2018-02-16T02:33:05.953Z,0
2018-02-16T02:34:05.684Z,0
2018-02-16T02:35:05.417Z,0
2018-02-16T02:36:05.908Z,0
2018-02-16T02:37:05.895Z,0
2018-02-16T02:38:05.886Z,0
2018-02-16T02:39:05.868Z,0
2018-02-16T02:40:05.865Z,0
2018-02-16T02:41:05.338Z,0
2018-02-16T02:42:05.584Z,0
2018-02-16T02:43:05.818Z,0
2018-02-16T02:44:05.808Z,0
2018-02-16T02:45:05.545Z,0
2018-02-16T02:46:05.524Z,0
2018-02-16T02:47:05.771Z,0
2018-02-16T02:48:05.743Z,0
2018-02-16T02:49:05.773Z,0
2018-02-16T02:50:05.466Z,0
2018-02-16T02:51:05.709Z,0
2018-02-16T02:52:05.689Z,0
2018-02-16T02:53:05.428Z,0
2018-02-16T02:54:05.668Z,0
2018-02-16T02:55:05.396Z,0
2018-02-16T02:56:05.639Z,0
2018-02-16T02:57:05.368Z,0
2018-02-16T02:58:05.357Z,0
2018-02-16T02:59:05.600Z,0
2018-02-16T03:00:05.078Z,0
2018-02-16T03:01:05.319Z,0
2018-02-16T03:02:05.046Z,0
2018-02-16T03:03:05.538Z,0
2018-02-16T03:04:05.533Z,0
2018-02-16T03:05:05.274Z,0
2018-02-16T03:06:05.249Z,0
2018-02-16T03:07:05.489Z,0
2018-02-16T03:08:05.216Z,0
2018-02-16T03:09:05.458Z,0
2018-02-16T03:10:04.939Z,0
2018-02-16T03:11:05.435Z,0
2018-02-16T03:12:05.162Z,0
2018-02-16T03:13:05.158Z,0
2018-02-16T03:14:05.139Z,0
2018-02-16T03:15:05.123Z,0
2018-02-16T03:16:05.111Z,0
2018-02-16T03:17:05.347Z,0
2018-02-16T03:18:05.342Z,0
2018-02-16T03:19:05.322Z,0
2018-02-16T03:20:05.056Z,0
2018-02-16T03:21:04.796Z,0
2018-02-16T03:22:05.283Z,0
2018-02-16T03:23:05.273Z,0
2018-02-16T03:24:05.013Z,0
2018-02-16T03:25:05.242Z,0
2018-02-16T03:26:05.228Z,0
2018-02-16T03:27:04.713Z,0
2018-02-16T03:28:05.202Z,0
2018-02-16T03:29:05.188Z,0
2018-02-16T03:30:04.926Z,0
2018-02-16T03:31:04.911Z,0
2018-02-16T03:32:05.155Z,0
2018-02-16T03:33:04.878Z,0
2018-02-16T03:34:04.871Z,0
2018-02-16T03:35:04.856Z,0
2018-02-16T03:36:04.838Z,0
2018-02-16T03:37:04.572Z,0
2018-02-16T03:38:04.560Z,0
2018-02-16T03:39:04.805Z,0
2018-02-16T03:40:04.820Z,0
2018-02-16T03:41:05.024Z,0
2018-02-16T03:42:04.759Z,0
2018-02-16T03:43:05.004Z,0
2018-02-16T03:44:04.736Z,0
2018-02-16T03:45:04.972Z,0
2018-02-16T03:46:04.955Z,0
2018-02-16T03:47:04.711Z,0
2018-02-16T03:48:04.675Z,0
2018-02-16T03:49:04.663Z,0
2018-02-16T03:50:04.649Z,0
2018-02-16T03:51:04.405Z,0
2018-02-16T03:52:04.877Z,0
2018-02-16T03:53:04.867Z,0
2018-02-16T03:54:04.591Z,0
2018-02-16T03:55:04.832Z,0
2018-02-16T03:56:04.568Z,0
2018-02-16T03:57:04.557Z,0
2018-02-16T03:58:04.544Z,0
2018-02-16T03:59:04.530Z,0
2018-02-16T04:00:04.518Z,0
2018-02-16T04:01:04.781Z,0
2018-02-16T04:02:04.233Z,0
2018-02-16T04:03:04.475Z,0
2018-02-16T04:04:04.466Z,0
2018-02-16T04:05:04.445Z,0
2018-02-16T04:06:04.438Z,0
2018-02-16T04:07:04.676Z,0
2018-02-16T04:08:04.411Z,0
2018-02-16T04:09:04.649Z,0
2018-02-16T04:10:04.381Z,0
2018-02-16T04:11:04.620Z,0
2018-02-16T04:12:04.359Z,0
2018-02-16T04:13:04.593Z,0
2018-02-16T04:14:04.583Z,0
2018-02-16T04:15:04.568Z,0
2018-02-16T04:16:04.342Z,0
2018-02-16T04:17:04.284Z,0
2018-02-16T04:18:04.289Z,0
2018-02-16T04:19:04.514Z,0
2018-02-16T04:20:04.249Z,0
2018-02-16T04:21:04.487Z,0
2018-02-16T04:22:04.485Z,0
2018-02-16T04:23:03.952Z,0
2018-02-16T04:24:04.191Z,0
2018-02-16T04:25:04.178Z,0
2018-02-16T04:26:04.418Z,0
2018-02-16T04:27:04.416Z,0
2018-02-16T04:28:04.403Z,0
2018-02-16T04:29:04.378Z,0
2018-02-16T04:30:04.371Z,0
2018-02-16T04:31:04.347Z,0
2018-02-16T04:32:04.083Z,0
2018-02-16T04:33:04.109Z,0
2018-02-16T04:34:04.061Z,0
2018-02-16T04:35:04.304Z,0
2018-02-16T04:36:04.292Z,0
2018-02-16T04:37:04.265Z,0
2018-02-16T04:38:04.254Z,0
2018-02-16T04:39:03.736Z,0
2018-02-16T04:40:04.227Z,0
2018-02-16T04:41:04.215Z,0
2018-02-16T04:42:04.219Z,0
2018-02-16T04:43:04.191Z,0
2018-02-16T04:44:03.918Z,0
2018-02-16T04:45:04.160Z,0
2018-02-16T04:46:04.163Z,0
2018-02-16T04:47:04.378Z,0
2018-02-16T04:48:03.859Z,0
2018-02-16T04:49:04.103Z,0
2018-02-16T04:50:03.837Z,0
2018-02-16T04:51:03.824Z,0
2018-02-16T04:52:03.804Z,0
2018-02-16T04:53:03.798Z,0
2018-02-16T04:54:04.036Z,0
2018-02-16T04:55:03.772Z,0
2018-02-16T04:56:03.750Z,0
2018-02-16T04:57:18.654Z,0
2018-02-16T04:58:03.985Z,0
2018-02-16T04:59:03.708Z,0
2018-02-16T05:00:03.948Z,0
2018-02-16T05:01:03.709Z,0
2018-02-16T05:02:03.663Z,0
2018-02-16T05:03:03.905Z,0
2018-02-16T05:04:03.893Z,0
2018-02-16T05:05:03.640Z,0
2018-02-16T05:06:03.862Z,0
2018-02-16T05:07:03.593Z,0
2018-02-16T05:08:03.835Z,0
2018-02-16T05:09:03.561Z,0
2018-02-16T05:10:03.549Z,0
2018-02-16T05:11:03.532Z,0
2018-02-16T05:12:03.772Z,0
2018-02-16T05:13:03.764Z,0
2018-02-16T05:14:03.498Z,0
2018-02-16T05:15:03.731Z,0
2018-02-16T05:16:03.722Z,0
2018-02-16T05:17:03.448Z,0
2018-02-16T05:18:03.437Z,0
2018-02-16T05:19:03.673Z,0
2018-02-16T05:20:03.660Z,0
2018-02-16T05:21:03.649Z,0
2018-02-16T05:22:03.630Z,0
2018-02-16T05:23:18.275Z,0
2018-02-16T05:24:03.602Z,0
2018-02-16T05:25:02.827Z,0
2018-02-16T05:26:03.581Z,0
2018-02-16T05:27:03.362Z,0
2018-02-16T05:28:03.284Z,0
2018-02-16T05:29:03.539Z,0
2018-02-16T05:30:03.518Z,0
2018-02-16T05:31:03.496Z,0
2018-02-16T05:32:03.233Z,0
2018-02-16T05:33:03.214Z,0
2018-02-16T05:34:03.200Z,0
2018-02-16T05:35:03.192Z,0
2018-02-16T05:36:02.677Z,0
2018-02-16T05:37:03.413Z,0
2018-02-16T05:38:03.148Z,0
2018-02-16T05:39:03.387Z,0
2018-02-16T05:40:03.374Z,0
2018-02-16T05:41:03.358Z,0
2018-02-16T05:42:03.092Z,0
2018-02-16T05:43:03.069Z,0
2018-02-16T05:44:03.063Z,4
2018-02-16T05:45:03.305Z,0
2018-02-16T05:46:03.283Z,4
2018-02-16T05:47:03.271Z,4
2018-02-16T05:48:03.256Z,4
2018-02-16T05:49:02.992Z,4
2018-02-16T05:50:02.976Z,4
2018-02-16T05:51:02.963Z,4
2018-02-16T05:52:02.948Z,8
2018-02-16T05:53:02.935Z,8
2018-02-16T05:54:03.182Z,8
2018-02-16T05:55:03.492Z,12
2018-02-16T05:56:02.890Z,16
2018-02-16T05:57:03.122Z,16
2018-02-16T05:58:02.862Z,20
2018-02-16T05:59:02.841Z,24
2018-02-16T06:00:02.836Z,28
2018-02-16T06:01:02.818Z,32
2018-02-16T06:02:02.805Z,40
2018-02-16T06:03:03.043Z,44
2018-02-16T06:04:02.518Z,52
2018-02-16T06:05:03.011Z,60
2018-02-16T06:06:02.744Z,68
2018-02-16T06:07:02.724Z,76
2018-02-16T06:08:02.458Z,92
2018-02-16T06:09:02.958Z,104
2018-02-16T06:10:02.678Z,120
2018-02-16T06:11:02.670Z,132
2018-02-16T06:12:02.651Z,152
2018-02-16T06:13:02.893Z,172
2018-02-16T06:14:02.880Z,188
2018-02-16T06:15:02.855Z,212
2018-02-16T06:16:02.662Z,236
2018-02-16T06:17:02.831Z,256
2018-02-16T06:18:02.822Z,284
2018-02-16T06:19:02.797Z,312
2018-02-16T06:20:02.021Z,340
2018-02-16T06:21:02.509Z,376
2018-02-16T06:22:02.562Z,408
2018-02-16T06:23:02.484Z,444
2018-02-16T06:24:02.729Z,480
2018-02-16T06:25:02.710Z,520
2018-02-16T06:26:02.437Z,564
2018-02-16T06:27:02.424Z,600
2018-02-16T06:28:02.402Z,648
2018-02-16T06:29:02.644Z,692
2018-02-16T06:30:02.394Z,740
2018-02-16T06:31:02.773Z,788
2018-02-16T06:32:02.342Z,836
2018-02-16T06:33:02.364Z,892
2018-02-16T06:34:02.572Z,944
2018-02-16T06:35:02.556Z,996
2018-02-16T06:36:02.282Z,1052
2018-02-16T06:37:02.523Z,1112
2018-02-16T06:38:02.253Z,1172
2018-02-16T06:39:02.237Z,1232
2018-02-16T06:40:02.477Z,1300
2018-02-16T06:41:02.499Z,1360
2018-02-16T06:42:02.193Z,1424
2018-02-16T06:43:02.426Z,1496
2018-02-16T06:44:01.953Z,1568
2018-02-16T06:45:02.161Z,1640
2018-02-16T06:46:02.386Z,1704
2018-02-16T06:47:02.773Z,1780
2018-02-16T06:48:02.363Z,1860
2018-02-16T06:49:02.351Z,1928
2018-02-16T06:50:02.333Z,2008
2018-02-16T06:51:02.054Z,2104
2018-02-16T06:52:02.037Z,2204
2018-02-16T06:53:02.021Z,2324
2018-02-16T06:54:02.256Z,2380
2018-02-16T06:55:02.247Z,2440
2018-02-16T06:56:01.717Z,2576
2018-02-16T06:57:02.224Z,2708
2018-02-16T06:58:01.944Z,2740
2018-02-16T06:59:02.212Z,2796
2018-02-16T07:00:02.235Z,3000
2018-02-16T07:01:01.902Z,3088
2018-02-16T07:02:02.150Z,3192
2018-02-16T07:03:01.865Z,3356
2018-02-16T07:04:02.110Z,3468
2018-02-16T07:05:01.840Z,3496
2018-02-16T07:06:01.823Z,3664
2018-02-16T07:07:02.065Z,3508
2018-02-16T07:08:01.791Z,3852
2018-02-16T07:09:01.524Z,3396
2018-02-16T07:10:02.023Z,3824
2018-02-16T07:11:01.753Z,3520
2018-02-16T07:12:02.015Z,4348
2018-02-16T07:13:01.980Z,3928
2018-02-16T07:14:01.982Z,4612
2018-02-16T07:15:01.697Z,4748
2018-02-16T07:16:01.930Z,4456
2018-02-16T07:17:01.945Z,4608
2018-02-16T07:18:01.963Z,4804
2018-02-16T07:19:01.392Z,4984
2018-02-16T07:20:01.927Z,5012
2018-02-16T07:21:01.862Z,5088
2018-02-16T07:22:01.849Z,5104
2018-02-16T07:23:01.576Z,5240
2018-02-16T07:24:01.820Z,4772
2018-02-16T07:25:01.809Z,5176
2018-02-16T07:26:01.795Z,5936
2018-02-16T07:27:01.784Z,5964
2018-02-16T07:28:01.775Z,5976
2018-02-16T07:29:01.251Z,6144
2018-02-16T07:30:01.742Z,6276
2018-02-16T07:31:01.543Z,6396
2018-02-16T07:32:01.462Z,6488
2018-02-16T07:33:01.704Z,6616
2018-02-16T07:34:01.692Z,5128
2018-02-16T07:35:01.674Z,5840
2018-02-16T07:36:01.408Z,4820
2018-02-16T07:37:01.665Z,6892
2018-02-16T07:38:01.408Z,6924
2018-02-16T07:39:01.624Z,5472
2018-02-16T07:40:01.615Z,6584
2018-02-16T07:41:01.092Z,7312
2018-02-16T07:42:01.593Z,7056
2018-02-16T07:43:01.582Z,7440
2018-02-16T07:44:01.060Z,7488
2018-02-16T07:45:01.558Z,7760
2018-02-16T07:46:01.554Z,8020
2018-02-16T07:47:01.282Z,8132
2018-02-16T07:48:01.527Z,8396
2018-02-16T07:49:01.265Z,8268
2018-02-16T07:50:01.240Z,7992
2018-02-16T07:51:01.488Z,6408
2018-02-16T07:52:01.478Z,5324
2018-02-16T07:53:01.460Z,5332
2018-02-16T07:54:01.199Z,5388
2018-02-16T07:55:01.433Z,5500
2018-02-16T07:56:01.179Z,5612
2018-02-16T07:57:01.160Z,5828
2018-02-16T07:58:01.144Z,6180
2018-02-16T07:59:01.391Z,6348
2018-02-16T08:00:01.132Z,6072
2018-02-16T08:01:01.125Z,5824
2018-02-16T08:02:01.099Z,5768
2018-02-16T08:03:01.338Z,5708
2018-02-16T08:04:01.094Z,6100
2018-02-16T08:05:01.322Z,6204
2018-02-16T08:06:01.306Z,5976
2018-02-16T08:07:01.042Z,5660
2018-02-16T08:08:01.284Z,5440
2018-02-16T08:09:01.275Z,5256
2018-02-16T08:10:01.269Z,5348
2018-02-16T08:11:00.999Z,5424
2018-02-16T08:12:01.280Z,5536
2018-02-16T08:13:01.225Z,5696
2018-02-16T08:14:01.210Z,5820
2018-02-16T08:15:00.950Z,5996
2018-02-16T08:16:00.678Z,6260
2018-02-16T08:17:01.308Z,6764
2018-02-16T08:18:01.180Z,7268
2018-02-16T08:19:01.158Z,7516
2018-02-16T08:20:01.131Z,7584
2018-02-16T08:21:00.873Z,7604
2018-02-16T08:22:01.123Z,7472
2018-02-16T08:23:01.105Z,7008
2018-02-16T08:24:01.102Z,6320
2018-02-16T08:25:01.085Z,5896
2018-02-16T08:26:01.067Z,5320
2018-02-16T08:27:01.055Z,4912
2018-02-16T08:28:01.068Z,4732
2018-02-16T08:29:01.027Z,4708
2018-02-16T08:30:01.017Z,4836
2018-02-16T08:31:00.745Z,5448
2018-02-16T08:32:00.986Z,5584
2018-02-16T08:33:00.973Z,5660
2018-02-16T08:34:00.968Z,5712
2018-02-16T08:35:00.954Z,5732
2018-02-16T08:36:00.690Z,5788
2018-02-16T08:37:00.681Z,5920
2018-02-16T08:38:00.705Z,6040
2018-02-16T08:39:00.923Z,6040
2018-02-16T08:40:00.921Z,6128
2018-02-16T08:41:00.630Z,6224
2018-02-16T08:42:00.356Z,6380
2018-02-16T08:43:00.603Z,6636
2018-02-16T08:44:00.343Z,6696
2018-02-16T08:45:00.581Z,6484
2018-02-16T08:46:00.561Z,6244
2018-02-16T08:47:00.554Z,6080
2018-02-16T08:48:00.801Z,5944
2018-02-16T08:49:00.787Z,5840
2018-02-16T08:50:00.787Z,5708
2018-02-16T08:51:00.506Z,5664
2018-02-16T08:52:00.752Z,5588
2018-02-16T08:53:00.758Z,5560
2018-02-16T08:54:00.711Z,5456
2018-02-16T08:55:00.453Z,5396
2018-02-16T08:56:00.446Z,5368
2018-02-16T08:57:00.726Z,5372
2018-02-16T08:58:00.423Z,5300
2018-02-16T08:59:00.406Z,5284
2018-02-16T09:00:00.170Z,5260
2018-02-16T09:01:00.385Z,5212
2018-02-16T09:02:00.389Z,5252
2018-02-16T09:03:00.615Z,5200
2018-02-16T09:04:00.604Z,5176
2018-02-16T09:05:00.591Z,5140
2018-02-16T09:06:00.063Z,5136
2018-02-16T09:07:00.055Z,5144
2018-02-16T09:08:00.336Z,5172
2018-02-16T09:09:00.342Z,5128
2018-02-16T09:10:00.277Z,5080
2018-02-16T09:11:00.254Z,5092
2018-02-16T09:11:59.739Z,5092
2018-02-16T09:13:00.522Z,5084
2018-02-16T09:14:00.480Z,5100
2018-02-16T09:15:00.469Z,5124
2018-02-16T09:16:00.458Z,5116
2018-02-16T09:17:00.437Z,5112
2018-02-16T09:18:00.184Z,5104
2018-02-16T09:19:00.196Z,5096
2018-02-16T09:20:00.416Z,5080
2018-02-16T09:20:59.881Z,5104
2018-02-16T09:22:00.137Z,5096
2018-02-16T09:23:00.375Z,5104
2018-02-16T09:24:00.103Z,5124
2018-02-16T09:25:00.350Z,5132
2018-02-16T09:26:00.097Z,5112
2018-02-16T09:27:00.328Z,5096
2018-02-16T09:27:59.801Z,5080
2018-02-16T09:28:59.795Z,5072
2018-02-16T09:30:00.088Z,5092
2018-02-16T09:31:00.037Z,5080
2018-02-16T09:31:59.754Z,5072
2018-02-16T09:33:00.248Z,5072
2018-02-16T09:34:00.324Z,5064
2018-02-16T09:35:00.330Z,5072
2018-02-16T09:36:00.300Z,5076
2018-02-16T09:36:59.949Z,5072
2018-02-16T09:37:59.932Z,5052
2018-02-16T09:38:59.681Z,5040
2018-02-16T09:39:59.914Z,5040
2018-02-16T09:41:00.156Z,5048
2018-02-16T09:41:59.640Z,5032
2018-02-16T09:43:00.132Z,5004
2018-02-16T09:43:59.611Z,5020
2018-02-16T09:44:59.848Z,5000
2018-02-16T09:46:00.132Z,5016
2018-02-16T09:46:59.843Z,5004
2018-02-16T09:48:00.074Z,5020
2018-02-16T09:48:59.819Z,5016
2018-02-16T09:49:59.891Z,5012
2018-02-16T09:50:59.544Z,5012
2018-02-16T09:51:59.771Z,4992
2018-02-16T09:52:59.778Z,4972
2018-02-16T09:54:00.023Z,4956
2018-02-16T09:54:59.737Z,4948
2018-02-16T09:55:59.727Z,4952
2018-02-16T09:56:59.721Z,4960
2018-02-16T09:57:59.445Z,4944
2018-02-16T09:58:59.943Z,4944
2018-02-16T09:59:59.679Z,4936
2018-02-16T10:00:59.952Z,4932
2018-02-16T10:01:59.932Z,4940
2018-02-16T10:02:59.915Z,4912
2018-02-16T10:03:59.636Z,4908
2018-02-16T10:04:59.637Z,4888
2018-02-16T10:05:59.868Z,4892
2018-02-16T10:06:59.615Z,4892
2018-02-16T10:07:59.584Z,4908
2018-02-16T10:08:59.840Z,4952
2018-02-16T10:09:59.563Z,5024
2018-02-16T10:10:59.861Z,5108
2018-02-16T10:11:59.542Z,5244
2018-02-16T10:12:59.855Z,5500
2018-02-16T10:13:59.779Z,5876
2018-02-16T10:14:59.779Z,6400
2018-02-16T10:15:59.493Z,6768
2018-02-16T10:16:59.516Z,6812
2018-02-16T10:17:59.499Z,6608
2018-02-16T10:18:59.736Z,6352
2018-02-16T10:19:59.450Z,6184
2018-02-16T10:20:59.690Z,6156
2018-02-16T10:21:59.428Z,6272
2018-02-16T10:22:59.671Z,6428
2018-02-16T10:23:59.667Z,6500
2018-02-16T10:24:59.409Z,6584
2018-02-16T10:25:59.387Z,6584
2018-02-16T10:26:59.639Z,6572
2018-02-16T10:27:59.635Z,6580
2018-02-16T10:28:59.383Z,6600
2018-02-16T10:29:59.630Z,7072
2018-02-16T10:30:59.336Z,7668
2018-02-16T10:31:59.574Z,7880
2018-02-16T10:32:59.315Z,7592
2018-02-16T10:33:59.297Z,7084
2018-02-16T10:34:59.038Z,6660
2018-02-16T10:35:59.561Z,6140
2018-02-16T10:36:59.528Z,5688
2018-02-16T10:37:59.807Z,5400
2018-02-16T10:38:59.509Z,5196
2018-02-16T10:39:59.490Z,5044
2018-02-16T10:40:59.239Z,4984
2018-02-16T10:41:58.965Z,4940
2018-02-16T10:42:59.492Z,4904
2018-02-16T10:43:59.454Z,4884
2018-02-16T10:44:59.443Z,4860
2018-02-16T10:45:58.921Z,4852
2018-02-16T10:46:59.438Z,4852
2018-02-16T10:47:59.411Z,4860
2018-02-16T10:48:59.579Z,4920
2018-02-16T10:49:58.921Z,4980
2018-02-16T10:50:59.401Z,4900
2018-02-16T10:51:59.366Z,4664
2018-02-16T10:52:59.377Z,4784
2018-02-16T10:53:59.096Z,4908
2018-02-16T10:54:59.356Z,5320
2018-02-16T10:55:59.083Z,5920
2018-02-16T10:56:59.066Z,6196
2018-02-16T10:57:59.059Z,6112
2018-02-16T10:58:58.796Z,5760
2018-02-16T10:59:59.309Z,5548
2018-02-16T11:00:59.971Z,5448
2018-02-16T11:01:59.271Z,5380
2018-02-16T11:02:59.290Z,5368
2018-02-16T11:03:59.255Z,5488
2018-02-16T11:04:59.009Z,5636
2018-02-16T11:05:58.734Z,5960
2018-02-16T11:06:58.995Z,6376
2018-02-16T11:07:58.989Z,6568
2018-02-16T11:08:59.214Z,6472
2018-02-16T11:09:59.237Z,6692
2018-02-16T11:10:59.129Z,7152
2018-02-16T11:11:58.914Z,6912
2018-02-16T11:12:58.915Z,6628
2018-02-16T11:13:59.173Z,7048
2018-02-16T11:14:58.894Z,7400
2018-02-16T11:15:59.155Z,7748
2018-02-16T11:16:58.870Z,8028
2018-02-16T11:17:59.116Z,8004
2018-02-16T11:18:59.113Z,7780
2018-02-16T11:19:58.847Z,6628
2018-02-16T11:20:59.098Z,6252
2018-02-16T11:21:59.076Z,6392
2018-02-16T11:22:59.065Z,6284
2018-02-16T11:23:59.108Z,6208
2018-02-16T11:24:59.048Z,6328
2018-02-16T11:25:58.784Z,7064
2018-02-16T11:26:58.770Z,7012
2018-02-16T11:27:58.754Z,7212
2018-02-16T11:28:59.105Z,7824
2018-02-16T11:29:58.749Z,8912
2018-02-16T11:30:59.001Z,9372
2018-02-16T11:31:58.728Z,9748
2018-02-16T11:32:58.712Z,10220
2018-02-16T11:33:58.723Z,10324
2018-02-16T11:34:58.984Z,9828
2018-02-16T11:35:58.686Z,9248
2018-02-16T11:36:58.943Z,8924
2018-02-16T11:37:58.924Z,8164
2018-02-16T11:38:59.110Z,7108
2018-02-16T11:39:58.919Z,7316
2018-02-16T11:41:13.558Z,6960
2018-02-16T11:41:58.655Z,6300
2018-02-16T11:42:58.373Z,6276
2018-02-16T11:43:58.905Z,6396
2018-02-16T11:44:58.883Z,6524
2018-02-16T11:45:58.342Z,6252
2018-02-16T11:46:58.583Z,6184
2018-02-16T11:47:58.580Z,5960
2018-02-16T11:48:58.845Z,5956
2018-02-16T11:49:58.301Z,6236
2018-02-16T11:50:58.553Z,6612
2018-02-16T11:51:58.285Z,6460
2018-02-16T11:52:58.529Z,5916
2018-02-16T11:53:58.781Z,5812
2018-02-16T11:54:58.558Z,5848
2018-02-16T11:55:58.756Z,6048
2018-02-16T11:56:58.753Z,6128
2018-02-16T11:57:58.742Z,6656
2018-02-16T11:58:58.729Z,6892
2018-02-16T12:03:14.367Z,8408
2018-02-16T12:03:44.784Z,8448
2018-02-16T12:04:45.028Z,9720
2018-02-16T12:05:45.029Z,12000
2018-02-16T12:06:44.762Z,11228
2018-02-16T12:07:44.755Z,8228
2018-02-16T12:08:44.986Z,7456
2018-02-16T12:09:44.994Z,8540
2018-02-16T12:10:44.978Z,9416
2018-02-16T12:11:45.026Z,10072
2018-02-16T12:12:44.725Z,13596
2018-02-16T12:13:44.985Z,12136
2018-02-16T12:14:44.422Z,8956
2018-02-16T12:15:44.942Z,9248
2018-02-16T12:16:44.658Z,11828
2018-02-16T12:17:44.669Z,11776
2018-02-16T12:18:44.919Z,9752
2018-02-16T12:19:44.893Z,9460
2018-02-16T12:20:44.618Z,9120
2018-02-16T12:21:44.874Z,9592
2018-02-16T12:22:44.610Z,9240
2018-02-16T12:23:44.591Z,8976
2018-02-16T12:24:44.841Z,8036
2018-02-16T12:25:44.572Z,7940
2018-02-16T12:26:44.602Z,10360
2018-02-16T12:27:44.646Z,9324
2018-02-16T12:28:44.841Z,7688
2018-02-16T12:29:44.797Z,7420
2018-02-16T12:30:44.788Z,6688
2018-02-16T12:31:44.967Z,5920
2018-02-16T12:32:44.790Z,5384
2018-02-16T12:33:44.767Z,5136
2018-02-16T12:34:44.509Z,5056
2018-02-16T12:35:44.759Z,5352
2018-02-16T12:36:44.230Z,4864
2018-02-16T12:37:43.966Z,4664
2018-02-16T12:38:44.470Z,4732
2018-02-16T12:39:44.470Z,4856
2018-02-16T12:40:44.702Z,4880
2018-02-16T12:41:44.722Z,4696
2018-02-16T12:42:44.436Z,4680
2018-02-16T12:43:44.677Z,4736
2018-02-16T12:44:44.413Z,4656
2018-02-16T12:45:44.398Z,4868
2018-02-16T12:46:44.647Z,5020
2018-02-16T12:47:44.652Z,5680
2018-02-16T12:48:44.636Z,6472
2018-02-16T12:49:44.365Z,7056
2018-02-16T12:50:44.356Z,6948
2018-02-16T12:51:44.348Z,6812
2018-02-16T12:52:44.344Z,6260
2018-02-16T12:53:44.586Z,5884
2018-02-16T12:54:44.077Z,5756
2018-02-16T12:55:44.576Z,5876
2018-02-16T12:56:44.303Z,5828
2018-02-16T12:57:44.567Z,5532
2018-02-16T12:58:44.275Z,5440
2018-02-16T12:59:44.521Z,5340
2018-02-16T13:00:44.263Z,5200
2018-02-16T13:01:44.557Z,5060
2018-02-16T13:02:44.492Z,4976
2018-02-16T13:03:44.484Z,4972
2018-02-16T13:04:43.969Z,4956
2018-02-16T13:05:44.213Z,4912
2018-02-16T13:06:44.200Z,4828
2018-02-16T13:07:44.187Z,4672
2018-02-16T13:08:44.239Z,4572
2018-02-16T13:09:44.441Z,4532
2018-02-16T13:10:44.433Z,4484
2018-02-16T13:11:44.163Z,4500
2018-02-16T13:12:44.396Z,4516
2018-02-16T13:13:43.890Z,4536
2018-02-16T13:14:44.170Z,4524
2018-02-16T13:15:44.374Z,4536
2018-02-16T13:16:44.108Z,4516
2018-02-16T13:17:44.358Z,4500
2018-02-16T13:18:44.340Z,4512
2018-02-16T13:19:44.334Z,4512
2018-02-16T13:20:43.811Z,4544
2018-02-16T13:21:43.806Z,4616
2018-02-16T13:22:44.043Z,4688
2018-02-16T13:23:44.313Z,4780
2018-02-16T13:24:44.279Z,4844
2018-02-16T13:25:44.019Z,4844
2018-02-16T13:26:44.002Z,4748
2018-02-16T13:27:44.272Z,4704
2018-02-16T13:28:43.979Z,4724
2018-02-16T13:29:43.972Z,4868
2018-02-16T13:30:44.213Z,5188
2018-02-16T13:31:43.702Z,5528
2018-02-16T13:32:44.200Z,6088
2018-02-16T13:33:43.937Z,6496
2018-02-16T13:34:43.945Z,6572
2018-02-16T13:35:44.160Z,6536
2018-02-16T13:36:44.163Z,6332
2018-02-16T13:37:43.895Z,6028
2018-02-16T13:38:43.886Z,5764
2018-02-16T13:39:44.387Z,5448
2018-02-16T13:40:44.136Z,5348
2018-02-16T13:41:44.310Z,5436
2018-02-16T13:42:44.105Z,5480
2018-02-16T13:43:44.127Z,5480
2018-02-16T13:44:43.851Z,5224
2018-02-16T13:45:43.810Z,5008
2018-02-16T13:46:43.804Z,4924
2018-02-16T13:47:44.052Z,4728
2018-02-16T13:48:44.044Z,4836
2018-02-16T13:49:43.262Z,5340
2018-02-16T13:50:43.762Z,5604
2018-02-16T13:51:44.009Z,6128
2018-02-16T13:52:44.100Z,6848
2018-02-16T13:53:44.004Z,6436
2018-02-16T13:54:43.979Z,5140
2018-02-16T13:55:43.983Z,4084
2018-02-16T13:56:43.957Z,3644
2018-02-16T13:57:43.432Z,3568